Kezdőlap
METAR-TAF:

METAR-TAF

Repülőterek :

Havre-Saint-Pierre, Québec, Kanada

földrajzi szélesség: 50-17N, földrajzi hosszúság: 063-37W, magasság: 33 m

Jelenlegi meteorológiai megfigyelések

A jelentés 13 perccel ezelõtt készült, 00:00 UTC
Északkeleti szél 5 kt
Hőmérséklet -7°C
Páratartalom 93%
Légköri nyomás 1019 hPa
Látótávolság: 14.5 km
Szakadozott felhőzet 24000 lábon

METAR: CYGV 190000Z AUTO 04005KT 9SM BKN240 M07/M08 A3010 RMK SLP199

Idő: 19:13 (00:13 UTC)

Előrejelzés

A jelentés 4 órával és 35 perccel ezelõtt készült, 19:38 UTC
Az előrejelzés 18-én 20 óra UTC és 19-én 08 óra UTC között érvényes
Különbözõ irányokból fújó szél 3 kt
Látótávolság: 10 km
Derült ég
18-én 22 óra UTC és 18-én 24 óra UTC között fokozatosan kialakuló
Északkeleti szél 8 kt

TAF: CYGV 181938Z 1820/1908 VRB03KT P6SM SKC BECMG 1822/1824 04008KT RMK FCST BASED ON AUTO OBS. NXT FCST BY 190200Z

Meteorológiai megfigyelések és előrejelzések több, mint 4000 repülőtéren (METAR és TAF jelentéseket).

A térképen piros és sárga pontok jelzik az elérhető meteorológiai állomásokat.

Mozgassa az egeret a pont fölött, hogy megjelenjen az állomás neve.

Azután kattintson az időjárási megfigyelések és előrejelzések megtekintéséhez.

A térkép megváltoztatása: kattintson a fekete keresztel jelölt zöld gombra ráközelítéshez, a vonallal jelölt zöld gombra távolításhoz, vagy a zöld nyilakra a szomszédos térképek eléréséhez.


METAR-TAF: